createdAt,value
2022-12-17T00:01:51.731Z,17.38
2022-12-17T00:04:53.861Z,17.77
2022-12-17T00:07:59.134Z,16.80
2022-12-17T00:11:02.872Z,15.80
2022-12-17T00:14:05.217Z,15.55
2022-12-17T00:17:08.409Z,17.65
2022-12-17T00:20:13.344Z,14.93
2022-12-17T00:23:15.230Z,15.05
2022-12-17T00:26:17.112Z,15.07
2022-12-17T00:29:19.592Z,17.08
2022-12-17T00:32:24.184Z,16.75
2022-12-17T00:35:26.157Z,16.02
2022-12-17T00:38:28.061Z,16.65
2022-12-17T00:41:31.108Z,17.08
2022-12-17T00:44:33.023Z,18.63
2022-12-17T00:47:36.279Z,18.33
2022-12-17T00:50:38.260Z,17.17
2022-12-17T00:53:40.774Z,19.95
2022-12-17T00:56:42.844Z,19.65
2022-12-17T00:59:46.706Z,19.90
2022-12-17T01:02:52.089Z,20.65
2022-12-17T01:05:54.353Z,21.35
2022-12-17T01:08:56.499Z,21.65
2022-12-17T01:11:58.466Z,20.67
2022-12-17T01:15:02.182Z,22.60
2022-12-17T01:18:05.606Z,24.55
2022-12-17T01:21:07.447Z,22.48
2022-12-17T01:24:09.494Z,20.67
2022-12-17T01:27:12.054Z,22.42
2022-12-17T01:30:13.983Z,23.67
2022-12-17T01:33:17.238Z,22.10
2022-12-17T01:36:19.474Z,23.65
2022-12-17T01:39:21.408Z,21.48
2022-12-17T01:42:23.539Z,23.52
2022-12-17T01:45:28.631Z,22.13
2022-12-17T01:48:37.097Z,24.52
2022-12-17T01:51:39.005Z,24.20
2022-12-17T01:54:45.822Z,24.55
2022-12-17T01:57:47.892Z,24.95
2022-12-17T02:00:50.170Z,24.42
2022-12-17T02:03:54.551Z,21.33
2022-12-17T02:07:08.432Z,23.25
2022-12-17T02:10:22.740Z,24.42
2022-12-17T02:13:32.529Z,24.60
2022-12-17T02:16:42.238Z,23.67
2022-12-17T02:19:55.360Z,25.58
2022-12-17T02:23:05.486Z,26.52
2022-12-17T02:26:13.276Z,24.30
2022-12-17T02:29:18.259Z,25.88
2022-12-17T02:32:22.283Z,25.60
2022-12-17T02:35:28.280Z,28.88
2022-12-17T02:38:31.693Z,28.67
2022-12-17T02:41:42.644Z,31.25
2022-12-17T02:44:47.342Z,29.23
2022-12-17T02:47:50.989Z,30.70
2022-12-17T02:50:53.323Z,29.33
2022-12-17T02:53:55.176Z,30.40
2022-12-17T02:56:58.556Z,29.95
2022-12-17T03:00:01.988Z,30.10
2022-12-17T03:03:04.153Z,32.70
2022-12-17T03:06:06.440Z,30.23
2022-12-17T03:09:12.215Z,32.60
2022-12-17T03:12:14.144Z,30.55
2022-12-17T03:15:17.409Z,29.33
2022-12-17T03:18:19.504Z,32.92
2022-12-17T03:21:21.541Z,31.45
2022-12-17T03:24:23.381Z,35.83
2022-12-17T03:27:25.274Z,31.45
2022-12-17T03:30:31.041Z,31.83
2022-12-17T03:33:37.196Z,31.60
2022-12-17T03:36:39.310Z,32.10
2022-12-17T03:39:41.210Z,31.08
2022-12-17T03:42:43.069Z,31.55
2022-12-17T03:45:53.359Z,32.65
2022-12-17T03:48:55.250Z,31.38
2022-12-17T03:51:57.144Z,34.30
2022-12-17T03:54:59.041Z,30.50
2022-12-17T03:58:00.917Z,33.67
2022-12-17T04:01:06.134Z,28.00
2022-12-17T04:04:08.021Z,29.88
2022-12-17T04:07:10.043Z,28.63
2022-12-17T04:10:11.929Z,29.50
2022-12-17T04:13:13.784Z,30.70
2022-12-17T04:16:17.103Z,29.50
2022-12-17T04:19:19.084Z,30.00
2022-12-17T04:22:20.976Z,29.27
2022-12-17T04:25:22.825Z,29.67
2022-12-17T04:28:24.742Z,29.15
2022-12-17T04:31:29.230Z,26.77
2022-12-17T04:34:31.131Z,28.40
2022-12-17T04:37:33.062Z,31.42
2022-12-17T04:40:34.887Z,26.67
2022-12-17T04:43:36.950Z,28.90
2022-12-17T04:46:40.471Z,27.38
2022-12-17T04:49:42.396Z,28.92
2022-12-17T04:52:44.303Z,29.25
2022-12-17T04:55:46.330Z,27.17
2022-12-17T04:58:48.224Z,29.05
2022-12-17T05:01:51.631Z,28.83
2022-12-17T05:04:53.555Z,31.13
2022-12-17T05:07:55.998Z,32.33
2022-12-17T05:11:01.953Z,30.77
2022-12-17T05:14:03.907Z,31.30
2022-12-17T05:17:10.287Z,27.73
2022-12-17T05:20:12.186Z,32.38
2022-12-17T05:23:14.090Z,28.40
2022-12-17T05:26:20.248Z,26.88
2022-12-17T05:29:22.238Z,26.88
2022-12-17T05:32:25.560Z,25.60
2022-12-17T05:35:27.469Z,23.35
2022-12-17T05:38:29.407Z,24.92
2022-12-17T05:41:31.338Z,24.88
2022-12-17T05:44:33.389Z,27.70
2022-12-17T05:47:36.764Z,26.25
2022-12-17T05:50:38.613Z,26.10
2022-12-17T05:53:40.494Z,26.13
2022-12-17T05:56:42.332Z,25.52
2022-12-17T05:59:44.253Z,24.70
2022-12-17T06:02:47.638Z,25.52
2022-12-17T06:05:54.105Z,26.42
2022-12-17T06:08:55.973Z,24.60
2022-12-17T06:12:02.625Z,23.75
2022-12-17T06:15:08.392Z,21.77
2022-12-17T06:18:16.513Z,23.23
2022-12-17T06:21:19.058Z,22.95
2022-12-17T06:24:20.939Z,23.80
2022-12-17T06:27:22.818Z,24.83
2022-12-17T06:30:24.701Z,24.40
2022-12-17T06:33:28.083Z,25.33
2022-12-17T06:36:29.915Z,26.30
2022-12-17T06:39:31.783Z,26.52
2022-12-17T06:42:33.574Z,25.98
2022-12-17T06:45:35.493Z,26.05
2022-12-17T06:48:39.032Z,25.95
2022-12-17T06:51:40.942Z,23.58
2022-12-17T06:54:45.825Z,22.98
2022-12-17T06:57:50.555Z,22.27
2022-12-17T07:00:52.683Z,23.10
2022-12-17T07:03:56.090Z,24.55
2022-12-17T07:06:57.976Z,24.67
2022-12-17T07:09:59.839Z,24.15
2022-12-17T07:13:05.439Z,24.65
2022-12-17T07:16:07.585Z,24.90
2022-12-17T07:19:10.974Z,23.73
2022-12-17T07:22:13.048Z,24.65
2022-12-17T07:25:15.033Z,23.63
2022-12-17T07:28:16.894Z,25.13
2022-12-17T07:31:18.812Z,25.10
2022-12-17T07:34:22.095Z,24.48
2022-12-17T07:37:24.029Z,23.70
2022-12-17T07:40:25.867Z,25.00
2022-12-17T07:43:27.731Z,24.75
2022-12-17T07:46:29.571Z,24.70
2022-12-17T07:49:32.831Z,23.67
2022-12-17T07:52:34.819Z,24.00
2022-12-17T07:55:36.901Z,23.58
2022-12-17T07:58:39.429Z,24.52
2022-12-17T08:01:41.392Z,23.58
2022-12-17T08:04:46.482Z,25.42
2022-12-17T08:07:48.321Z,25.40
2022-12-17T08:10:50.253Z,24.38
2022-12-17T08:13:52.123Z,28.50
2022-12-17T08:16:54.076Z,28.52
2022-12-17T08:19:57.335Z,28.67
2022-12-17T08:23:02.795Z,25.58
2022-12-17T08:26:06.371Z,24.48
2022-12-17T08:29:08.553Z,23.67
2022-12-17T08:32:10.626Z,21.52
2022-12-17T08:35:14.044Z,21.90
2022-12-17T08:38:15.895Z,23.38
2022-12-17T08:41:17.775Z,24.17
2022-12-17T08:44:19.625Z,23.98
2022-12-17T08:47:21.513Z,24.63
2022-12-17T08:50:25.808Z,25.10
2022-12-17T08:53:30.685Z,23.83
2022-12-17T08:56:36.474Z,23.45
2022-12-17T08:59:38.376Z,23.73
2022-12-17T09:02:40.458Z,25.08
2022-12-17T09:05:44.071Z,23.98
2022-12-17T09:08:46.449Z,23.48
2022-12-17T09:11:48.408Z,24.20
2022-12-17T09:14:50.321Z,23.92
2022-12-17T09:17:52.411Z,24.70
2022-12-17T09:20:57.511Z,24.38
2022-12-17T09:23:59.369Z,23.90
2022-12-17T09:27:01.621Z,23.50
2022-12-17T09:30:03.855Z,22.40
2022-12-17T09:33:05.993Z,23.52
2022-12-17T09:36:09.933Z,22.30
2022-12-17T09:39:11.823Z,22.23
2022-12-17T09:42:20.479Z,21.60
2022-12-17T09:45:27.760Z,21.80
2022-12-17T09:48:36.022Z,21.17
2022-12-17T09:51:39.424Z,22.07
2022-12-17T09:54:45.491Z,19.50
2022-12-17T09:57:49.439Z,19.88
2022-12-17T10:00:57.681Z,20.52
2022-12-17T10:04:04.085Z,19.52
2022-12-17T10:07:13.433Z,19.02
2022-12-17T10:10:19.092Z,57.53
2022-12-17T10:13:23.254Z,33.63
2022-12-17T10:16:28.254Z,19.35
2022-12-17T10:19:34.316Z,22.40
2022-12-17T10:22:45.002Z,22.02
2022-12-17T10:25:50.904Z,22.55
2022-12-17T10:29:02.340Z,22.10
2022-12-17T10:32:10.812Z,21.42
2022-12-17T10:35:19.015Z,18.40
2022-12-17T10:38:24.746Z,13.73
2022-12-17T10:41:28.333Z,19.70
2022-12-17T10:44:33.808Z,19.00
2022-12-17T10:47:35.710Z,19.50
2022-12-17T10:50:41.713Z,20.48
2022-12-17T10:53:49.561Z,17.08
2022-12-17T10:56:53.625Z,19.27
2022-12-17T10:59:55.558Z,16.73
2022-12-17T11:02:59.406Z,18.55
2022-12-17T11:06:01.690Z,20.45
2022-12-17T11:09:05.250Z,18.70
2022-12-17T11:12:10.321Z,18.70
2022-12-17T11:15:20.357Z,17.92
2022-12-17T11:18:27.575Z,16.88
2022-12-17T11:21:34.891Z,21.35
2022-12-17T11:24:42.204Z,20.63
2022-12-17T11:27:48.523Z,18.50
2022-12-17T11:30:58.279Z,18.08
2022-12-17T11:34:06.530Z,17.42
2022-12-17T11:37:17.831Z,18.37
2022-12-17T11:40:30.608Z,19.77
2022-12-17T11:43:45.181Z,17.33
2022-12-17T11:46:55.020Z,17.63
2022-12-17T11:50:13.217Z,16.02
2022-12-17T11:53:28.345Z,16.13
2022-12-17T11:56:37.786Z,17.33
2022-12-17T11:59:50.960Z,17.40
2022-12-17T12:03:09.256Z,17.40
2022-12-17T12:06:17.958Z,17.55
2022-12-17T12:09:28.923Z,17.70
2022-12-17T12:12:45.084Z,18.65
2022-12-17T12:16:01.035Z,18.27
2022-12-17T12:19:13.092Z,17.90
2022-12-17T12:22:19.192Z,19.83
2022-12-17T12:25:37.025Z,20.95
2022-12-17T12:28:47.543Z,18.65
2022-12-17T12:31:57.243Z,20.30
2022-12-17T12:35:03.100Z,27.10
2022-12-17T12:38:05.687Z,28.00
2022-12-17T12:41:19.832Z,25.40
2022-12-17T12:44:34.531Z,28.00
2022-12-17T12:47:47.814Z,27.70
2022-12-17T12:50:57.923Z,27.55
2022-12-17T12:54:02.085Z,26.70
2022-12-17T12:57:04.130Z,28.52
2022-12-17T13:00:25.036Z,31.92
2022-12-17T13:03:33.724Z,31.17
2022-12-17T13:06:42.143Z,31.35
2022-12-17T13:09:48.732Z,31.42
2022-12-17T13:12:51.927Z,31.45
2022-12-17T13:15:59.812Z,30.63
2022-12-17T13:19:03.746Z,27.80
2022-12-17T13:22:27.708Z,31.38
2022-12-17T13:25:29.719Z,33.15
2022-12-17T13:28:39.877Z,35.70
2022-12-17T13:31:53.674Z,36.72
2022-12-17T13:35:10.249Z,29.23
2022-12-17T13:38:21.294Z,36.60
2022-12-17T13:41:28.701Z,48.88
2022-12-17T13:44:38.664Z,46.75
2022-12-17T13:47:41.929Z,35.60
2022-12-17T13:50:53.775Z,34.40
2022-12-17T13:53:57.722Z,33.00
2022-12-17T13:57:14.901Z,34.70
2022-12-17T14:00:23.308Z,32.33
2022-12-17T14:03:43.418Z,52.78
2022-12-17T14:06:51.556Z,33.33
2022-12-17T14:09:54.449Z,35.35
2022-12-17T14:13:06.036Z,35.65
2022-12-17T14:16:09.042Z,32.65
2022-12-17T14:19:12.576Z,33.58
2022-12-17T14:22:19.783Z,33.67
2022-12-17T14:25:24.953Z,37.08
2022-12-17T14:28:32.116Z,36.90
2022-12-17T14:31:35.202Z,32.63
2022-12-17T14:34:42.688Z,31.90
2022-12-17T14:37:47.272Z,29.40
2022-12-17T14:40:54.000Z,28.75
2022-12-17T14:43:57.542Z,32.58
2022-12-17T14:47:11.868Z,33.53
2022-12-17T14:50:30.438Z,34.97
2022-12-17T14:53:32.379Z,34.60
2022-12-17T14:56:34.245Z,31.13
2022-12-17T14:59:37.856Z,30.98
2022-12-17T15:02:42.362Z,31.88
2022-12-17T15:05:48.856Z,30.58
2022-12-17T15:08:51.888Z,30.20
2022-12-17T15:11:53.826Z,32.05
2022-12-17T15:14:55.871Z,29.90
2022-12-17T15:17:57.896Z,98.65
2022-12-17T15:21:02.081Z,78.65
2022-12-17T15:24:04.631Z,65.32
2022-12-17T15:27:06.598Z,52.85
2022-12-17T15:30:15.877Z,60.45
2022-12-17T15:33:17.991Z,39.47
2022-12-17T15:36:21.460Z,30.20
2022-12-17T15:39:23.495Z,27.83
2022-12-17T15:42:25.406Z,26.52
2022-12-17T15:45:27.502Z,31.45
2022-12-17T15:48:29.741Z,28.30
2022-12-17T15:51:33.096Z,46.10
2022-12-17T15:54:35.308Z,86.85
2022-12-17T15:57:37.770Z,115.57
2022-12-17T16:00:39.850Z,90.03
2022-12-17T16:03:42.700Z,32.05
2022-12-17T16:06:46.609Z,44.65
2022-12-17T16:09:48.786Z,42.30
2022-12-17T16:12:50.676Z,31.65
2022-12-17T16:16:00.768Z,36.42
2022-12-17T16:19:05.830Z,34.63
2022-12-17T16:22:09.541Z,29.98
2022-12-17T16:25:12.188Z,39.17
2022-12-17T16:28:16.432Z,32.38
2022-12-17T16:31:19.244Z,32.13
2022-12-17T16:34:21.662Z,29.95
2022-12-17T16:37:25.472Z,27.90
2022-12-17T16:40:28.060Z,27.10
2022-12-17T16:43:34.978Z,28.02
2022-12-17T16:46:38.429Z,25.95
2022-12-17T16:49:40.804Z,26.33
2022-12-17T16:52:45.021Z,27.30
2022-12-17T16:55:59.856Z,144.40
2022-12-17T16:59:04.876Z,32.67
2022-12-17T17:02:12.721Z,29.13
2022-12-17T17:05:15.626Z,51.97
2022-12-17T17:08:19.207Z,43.38
2022-12-17T17:11:23.460Z,75.72
2022-12-17T17:14:26.220Z,112.32
2022-12-17T17:17:55.406Z,92.68
2022-12-17T17:20:50.813Z,65.10
2022-12-17T17:23:57.327Z,52.85
2022-12-17T17:26:59.595Z,58.20
2022-12-17T17:30:03.835Z,46.60
2022-12-17T17:33:06.108Z,49.50
2022-12-17T17:36:10.819Z,56.47
2022-12-17T17:39:17.148Z,53.83
2022-12-17T17:42:19.248Z,32.88
2022-12-17T17:45:21.492Z,28.13
2022-12-17T17:48:23.471Z,28.88
2022-12-17T17:51:59.975Z,35.08
2022-12-17T17:54:52.105Z,33.95
2022-12-17T17:57:54.171Z,42.28
2022-12-17T18:00:56.381Z,47.80
2022-12-17T18:04:05.046Z,49.80
2022-12-17T18:10:33.122Z,33.47
2022-12-17T18:13:35.709Z,38.85
2022-12-17T18:16:40.314Z,33.92
2022-12-17T18:19:42.547Z,27.80
2022-12-17T18:22:45.347Z,29.25
2022-12-17T18:25:50.673Z,24.90
2022-12-17T18:28:53.128Z,45.85
2022-12-17T18:31:55.865Z,56.15
2022-12-17T18:34:57.874Z,34.17
2022-12-17T18:38:02.201Z,32.22
2022-12-17T18:41:12.951Z,33.42
2022-12-17T18:44:16.110Z,30.42
2022-12-17T18:47:18.098Z,28.80
2022-12-17T18:50:20.071Z,25.88
2022-12-17T18:53:22.103Z,24.65
2022-12-17T18:56:52.617Z,24.58
2022-12-17T18:59:49.397Z,23.58
2022-12-17T19:02:51.575Z,25.90
2022-12-17T19:05:54.520Z,29.98
2022-12-17T19:08:59.646Z,28.13
2022-12-17T19:12:05.564Z,26.88
2022-12-17T19:15:09.091Z,27.00
2022-12-17T19:18:11.360Z,35.15
2022-12-17T19:21:13.713Z,34.53
2022-12-17T19:24:19.731Z,36.53
2022-12-17T19:27:25.633Z,36.95
2022-12-17T19:30:27.738Z,38.95
2022-12-17T19:33:30.457Z,39.63
2022-12-17T19:36:34.086Z,36.92
2022-12-17T19:39:40.441Z,37.00
2022-12-17T19:42:44.238Z,35.17
2022-12-17T19:45:46.687Z,36.60
2022-12-17T19:48:49.760Z,34.70
2022-12-17T19:51:54.022Z,33.50
2022-12-17T19:54:56.845Z,33.47
2022-12-17T19:58:00.693Z,32.22
2022-12-17T20:01:06.533Z,30.60
2022-12-17T20:04:12.433Z,33.47
2022-12-17T20:07:14.399Z,32.92
2022-12-17T20:10:17.297Z,32.78
2022-12-17T20:13:23.350Z,35.95
2022-12-17T20:16:28.439Z,37.78
2022-12-17T20:19:32.624Z,39.90
2022-12-17T20:22:34.836Z,39.83
2022-12-17T20:25:37.532Z,43.17
2022-12-17T20:28:41.510Z,41.60
2022-12-17T20:31:49.439Z,39.65
2022-12-17T20:34:52.671Z,40.97
2022-12-17T20:37:55.344Z,40.80
2022-12-17T20:40:57.396Z,42.65
2022-12-17T20:44:03.924Z,42.05
2022-12-17T20:47:06.112Z,41.63
2022-12-17T20:50:11.290Z,42.00
2022-12-17T20:53:13.246Z,41.50
2022-12-17T20:56:17.715Z,41.38
2022-12-17T20:59:21.071Z,42.92
2022-12-17T21:02:25.556Z,44.28
2022-12-17T21:05:28.169Z,43.10
2022-12-17T21:08:31.786Z,42.90
2022-12-17T21:11:36.283Z,45.03
2022-12-17T21:14:39.939Z,42.97
2022-12-17T21:17:41.901Z,39.50
2022-12-17T21:20:44.091Z,38.90
2022-12-17T21:23:47.034Z,37.60
2022-12-17T21:26:49.691Z,36.35
2022-12-17T21:29:53.361Z,40.08
2022-12-17T21:32:55.522Z,41.53
2022-12-17T21:36:01.812Z,42.15
2022-12-17T21:39:12.351Z,39.95
2022-12-17T21:42:14.371Z,42.25
2022-12-17T21:45:17.946Z,41.30
2022-12-17T21:48:20.146Z,41.85
2022-12-17T21:51:22.675Z,38.80
2022-12-17T21:54:25.650Z,36.70
2022-12-17T21:57:27.593Z,35.45
2022-12-17T22:00:30.928Z,37.95
2022-12-17T22:03:32.828Z,36.75
2022-12-17T22:06:37.407Z,34.50
2022-12-17T22:10:10.695Z,31.70
2022-12-17T22:13:11.480Z,34.70
2022-12-17T22:16:15.143Z,33.55
2022-12-17T22:19:22.643Z,33.03
2022-12-17T22:22:24.726Z,34.42
2022-12-17T22:25:29.151Z,33.10
2022-12-17T22:28:31.089Z,34.28
2022-12-17T22:31:37.910Z,34.30
2022-12-17T22:36:05.590Z,35.83
2022-12-17T22:41:51.458Z,35.67
2022-12-17T22:44:39.292Z,32.85
2022-12-17T22:44:53.252Z,35.13
2022-12-17T22:47:57.398Z,35.13
2022-12-17T22:51:13.983Z,33.95
2022-12-17T22:54:20.600Z,34.95
2022-12-17T22:57:36.024Z,35.13
2022-12-17T23:00:39.840Z,37.25
2022-12-17T23:03:43.964Z,33.00
2022-12-17T23:06:46.571Z,35.20
2022-12-17T23:09:50.026Z,34.50
2022-12-17T23:12:54.462Z,33.22
2022-12-17T23:15:56.414Z,33.92
2022-12-17T23:19:00.534Z,33.47
2022-12-17T23:22:02.878Z,31.77
2022-12-17T23:25:05.636Z,35.00
2022-12-17T23:28:07.608Z,36.35
2022-12-17T23:31:11.557Z,36.33
2022-12-17T23:34:15.348Z,33.78
2022-12-17T23:37:17.521Z,36.65
2022-12-17T23:40:19.553Z,37.10
2022-12-17T23:43:21.561Z,37.70
2022-12-17T23:46:25.467Z,36.75
2022-12-17T23:49:28.839Z,34.08
2022-12-17T23:52:32.205Z,33.47
2022-12-17T23:55:34.257Z,35.38
2022-12-17T23:58:37.815Z,34.90
